Time;durP1;ratioP1;P1;durP2;ratioP2;P2;SDS_P1;SDS_P2;PMS_P1;PMS_P2;Temp;Humidity;BMP_temperature;BMP_pressure;BME280_temperature;BME280_humidity;BME280_pressure;Samples;Min_cycle;Max_cycle;Signal;HPM_P1;HPM_P2
2023/10/08 00:00:46;;;;;;;3.88;2.40;;;12.70;99.90;;;;;;4998168;28;20189;-67
2023/10/08 00:03:14;;;;;;;3.25;2.30;;;12.70;99.90;;;;;;5024223;28;20200;-67
2023/10/08 00:05:42;;;;;;;3.25;2.03;;;12.70;99.90;;;;;;5017426;28;20233;-67
2023/10/08 00:08:09;;;;;;;3.95;2.88;;;12.70;99.90;;;;;;5027744;28;20683;-67
2023/10/08 00:10:37;;;;;;;2.63;2.33;;;12.70;99.90;;;;;;5030680;28;20748;-67
2023/10/08 00:13:07;;;;;;;3.35;2.60;;;12.70;99.90;;;;;;5039208;28;25272;-67
2023/10/08 00:15:36;;;;;;;3.53;2.83;;;12.90;99.90;;;;;;5006612;28;20956;-67
2023/10/08 00:18:04;;;;;;;5.43;2.63;;;12.80;99.90;;;;;;5036242;28;20203;-67
2023/10/08 00:20:35;;;;;;;4.38;2.78;;;12.30;99.90;;;;;;5022719;28;20201;-67
2023/10/08 00:23:07;;;;;;;2.92;2.60;;;13.00;99.90;;;;;;5031404;28;20198;-67
2023/10/08 00:25:40;;;;;;;3.60;2.78;;;12.20;99.90;;;;;;5031391;28;21009;-67
2023/10/08 00:28:10;;;;;;;4.05;2.78;;;12.80;99.90;;;;;;5040338;28;20205;-67
2023/10/08 00:30:40;;;;;;;3.55;2.05;;;12.80;99.90;;;;;;5036266;28;20205;-67
2023/10/08 00:33:08;;;;;;;3.50;2.03;;;12.80;99.90;;;;;;5006723;28;20224;-67
2023/10/08 00:35:38;;;;;;;3.00;2.00;;;13.00;99.90;;;;;;5039362;28;21105;-67
2023/10/08 00:38:14;;;;;;;2.42;1.70;;;12.80;99.90;;;;;;5023834;28;20208;-67
2023/10/08 00:40:45;;;;;;;5.45;1.67;;;12.70;99.90;;;;;;5025432;28;20207;-66
2023/10/08 00:43:30;;;;;;;2.17;1.40;;;12.80;99.90;;;;;;5040491;28;20207;-66
2023/10/08 00:46:00;;;;;;;6.68;1.70;;;12.70;99.90;;;;;;5040478;28;20544;-67
2023/10/08 00:48:29;;;;;;;2.13;1.42;;;13.00;99.90;;;;;;5006986;28;20320;-66
2023/10/08 00:51:09;;;;;;;5.50;1.48;;;12.80;99.90;;;;;;5035584;28;21108;-67
2023/10/08 00:53:39;;;;;;;3.20;1.45;;;12.80;99.90;;;;;;5027621;28;20409;-67
2023/10/08 00:56:13;;;;;;;3.80;1.58;;;12.80;99.90;;;;;;5034276;28;20233;-67
2023/10/08 00:58:41;;;;;;;6.68;2.00;;;12.80;99.90;;;;;;5038061;28;20276;-67
2023/10/08 01:01:11;;;;;;;3.35;1.83;;;12.80;99.90;;;;;;5042837;28;20339;-66
2023/10/08 01:03:43;;;;;;;4.03;1.35;;;12.80;99.90;;;;;;5008596;28;20217;-67
2023/10/08 01:06:11;;;;;;;2.95;1.70;;;12.80;99.90;;;;;;5039129;28;20204;-67
2023/10/08 01:08:45;;;;;;;3.28;2.10;;;12.70;99.90;;;;;;5025504;28;20248;-66
2023/10/08 01:11:19;;;;;;;3.97;2.22;;;12.80;99.90;;;;;;5030651;28;20197;-67
2023/10/08 01:13:46;;;;;;;3.35;2.30;;;11.30;99.90;;;;;;5036380;28;20199;-67
2023/10/08 01:16:15;;;;;;;3.47;2.55;;;13.30;99.90;;;;;;5035961;28;20245;-66
2023/10/08 01:18:49;;;;;;;2.85;2.00;;;12.80;99.90;;;;;;4997687;28;21065;-67
2023/10/08 01:21:31;;;;;;;6.35;3.10;;;12.80;99.90;;;;;;5041273;28;20207;-67
2023/10/08 01:24:02;;;;;;;5.70;2.70;;;12.70;99.90;;;;;;5020049;28;20197;-67
2023/10/08 01:26:31;;;;;;;5.80;2.80;;;12.70;99.90;;;;;;5030580;28;20201;-67
2023/10/08 01:29:02;;;;;;;10.02;2.92;;;12.70;99.90;;;;;;5030068;28;20298;-67
2023/10/08 01:31:29;;;;;;;3.25;2.70;;;12.80;99.90;;;;;;5040943;28;20197;-66
2023/10/08 01:33:56;;;;;;;4.05;2.58;;;12.80;99.90;;;;;;5009552;28;20213;-66
2023/10/08 01:36:24;;;;;;;4.55;2.63;;;12.70;99.90;;;;;;5037242;28;20316;-66
2023/10/08 01:38:50;;;;;;;5.28;2.60;;;12.70;99.90;;;;;;5030912;28;20209;-67
2023/10/08 01:41:29;;;;;;;3.45;2.45;;;12.70;99.90;;;;;;5030473;28;20216;-67
2023/10/08 01:43:57;;;;;;;5.55;2.45;;;12.70;99.90;;;;;;5038049;28;20202;-67
2023/10/08 01:46:26;;;;;;;4.53;2.13;;;12.70;99.90;;;;;;5030917;28;20200;-67
2023/10/08 01:49:03;;;;;;;6.03;2.28;;;12.80;99.90;;;;;;5037185;28;20220;-67
2023/10/08 01:51:37;;;;;;;5.32;2.15;;;12.90;99.90;;;;;;5008595;28;20213;-67
2023/10/08 01:54:10;;;;;;;3.30;2.38;;;12.80;99.90;;;;;;5040544;28;20243;-67
2023/10/08 01:56:42;;;;;;;4.00;1.90;;;12.80;99.90;;;;;;5017985;28;20612;-67
2023/10/08 01:59:10;;;;;;;8.73;2.55;;;12.80;99.90;;;;;;5039277;28;20209;-67
2023/10/08 02:01:38;;;;;;;5.80;1.85;;;12.70;99.90;;;;;;5026513;28;20300;-67
2023/10/08 02:04:07;;;;;;;5.15;1.70;;;12.80;99.90;;;;;;5043726;28;20200;-67
2023/10/08 02:06:34;;;;;;;5.25;1.67;;;12.70;99.90;;;;;;5006777;28;20694;-67
2023/10/08 02:09:06;;;;;;;4.60;1.80;;;12.80;99.90;;;;;;5037591;28;20220;-66
2023/10/08 02:11:41;;;;;;;4.35;2.05;;;12.70;99.90;;;;;;5028027;28;20239;-67
2023/10/08 02:14:09;;;;;;;2.80;1.83;;;12.80;99.90;;;;;;5037945;28;20209;-67
2023/10/08 02:16:37;;;;;;;3.20;1.75;;;12.80;99.90;;;;;;5027115;28;20228;-67
2023/10/08 02:19:04;;;;;;;5.82;2.17;;;12.80;99.90;;;;;;5033522;28;20663;-67
2023/10/08 02:21:31;;;;;;;3.97;1.58;;;13.50;99.90;;;;;;5006432;28;20213;-67
2023/10/08 02:23:58;;;;;;;6.18;1.70;;;;;;;;;;5038099;28;20242;-67
2023/10/08 02:26:25;;;;;;;5.53;2.03;;;12.70;99.90;;;;;;5022791;28;20202;-67
2023/10/08 02:28:51;;;;;;;3.20;2.03;;;12.70;99.90;;;;;;5042170;28;20208;-67
2023/10/08 02:31:20;;;;;;;3.85;2.25;;;12.70;99.90;;;;;;5021682;28;20775;-67
2023/10/08 02:33:47;;;;;;;3.92;2.30;;;12.80;99.90;;;;;;5031732;28;20235;-67
2023/10/08 02:36:13;;;;;;;4.43;1.90;;;12.70;99.90;;;;;;5001967;28;20216;-67
2023/10/08 02:38:40;;;;;;;8.73;2.55;;;13.40;99.90;;;;;;5024598;28;20205;-67
2023/10/08 02:41:08;;;;;;;3.28;2.45;;;12.80;99.90;;;;;;5037635;28;20209;-67
2023/10/08 02:43:36;;;;;;;4.93;2.58;;;12.70;99.90;;;;;;5026639;28;20219;-67
2023/10/08 02:46:06;;;;;;;3.00;2.40;;;12.80;99.90;;;;;;5039691;28;20369;-67
2023/10/08 02:48:35;;;;;;;8.02;2.60;;;13.10;99.90;;;;;;5035964;28;20205;-67
2023/10/08 02:51:11;;;;;;;3.85;2.25;;;12.70;99.90;;;;;;5022584;28;20422;-67
2023/10/08 02:53:41;;;;;;;7.68;2.90;;;12.80;99.90;;;;;;5028497;28;20232;-67
2023/10/08 02:56:12;;;;;;;9.48;2.70;;;12.70;99.90;;;;;;5037380;28;20607;-67
2023/10/08 02:58:40;;;;;;;5.32;2.20;;;12.50;99.90;;;;;;5028136;28;20209;-67
2023/10/08 03:01:12;;;;;;;5.65;2.50;;;12.80;99.90;;;;;;5034309;28;20200;-67
2023/10/08 03:03:41;;;;;;;7.68;2.45;;;13.10;99.90;;;;;;5028452;28;20217;-67
2023/10/08 03:06:11;;;;;;;3.65;2.70;;;13.20;99.90;;;;;;5038779;28;20197;-67
2023/10/08 03:08:40;;;;;;;4.25;2.80;;;12.70;99.90;;;;;;5004747;28;20235;-67
2023/10/08 03:11:16;;;;;;;10.85;3.35;;;12.80;99.90;;;;;;5036995;28;20270;-67
2023/10/08 03:13:46;;;;;;;7.47;2.45;;;12.90;99.90;;;;;;5027255;28;20291;-66
2023/10/08 03:16:14;;;;;;;4.60;2.60;;;13.00;99.90;;;;;;5031535;28;20405;-67
2023/10/08 03:18:45;;;;;;;8.63;2.58;;;12.70;99.90;;;;;;5024496;28;20671;-67
2023/10/08 03:21:21;;;;;;;5.75;3.00;;;12.80;99.90;;;;;;5033624;28;20201;-67
2023/10/08 03:23:50;;;;;;;4.35;2.42;;;12.90;99.90;;;;;;5008590;28;20212;-66
2023/10/08 03:26:33;;;;;;;4.13;2.40;;;12.70;99.90;;;;;;5027364;28;20671;-67
2023/10/08 03:29:07;;;;;;;5.15;2.55;;;13.80;99.90;;;;;;5027279;28;20215;-67
2023/10/08 03:31:49;;;;;;;7.20;2.33;;;12.60;99.90;;;;;;5035630;28;20208;-67
2023/10/08 03:34:19;;;;;;;3.45;2.00;;;12.70;99.90;;;;;;5027195;28;20201;-66
2023/10/08 03:36:49;;;;;;;4.95;2.17;;;12.70;99.90;;;;;;5036238;28;20196;-66
2023/10/08 03:39:18;;;;;;;3.88;2.40;;;12.70;99.90;;;;;;5007543;28;20227;-67
2023/10/08 03:41:59;;;;;;;6.45;2.15;;;12.70;99.90;;;;;;5029914;28;20208;-67
2023/10/08 03:44:29;;;;;;;8.32;2.28;;;14.00;99.90;;;;;;5028553;28;20220;-67
2023/10/08 03:46:57;;;;;;;4.13;1.90;;;12.70;99.90;;;;;;5034661;28;20804;-67
2023/10/08 03:49:31;;;;;;;5.07;2.20;;;12.80;99.90;;;;;;5027844;28;20254;-67
2023/10/08 03:51:58;;;;;;;4.93;1.80;;;12.80;99.90;;;;;;5034676;28;20386;-67
2023/10/08 03:54:33;;;;;;;4.57;2.03;;;12.90;99.90;;;;;;5004705;28;20225;-67
2023/10/08 03:57:01;;;;;;;9.25;1.75;;;12.80;99.90;;;;;;5026067;28;20227;-67
2023/10/08 03:59:31;;;;;;;5.28;1.95;;;13.00;99.90;;;;;;5034549;28;20198;-67
2023/10/08 04:02:09;;;;;;;5.78;1.98;;;12.70;99.90;;;;;;5020508;28;21039;-67
2023/10/08 04:04:50;;;;;;;5.15;1.65;;;12.70;99.90;;;;;;5039341;28;20200;-67
2023/10/08 04:07:39;;;;;;;5.88;1.85;;;12.70;99.90;;;;;;5026982;28;21072;-67
2023/10/08 04:10:39;;;;;;;3.08;1.52;;;12.70;99.90;;;;;;5017749;28;20229;-67
2023/10/08 04:13:08;;;;;;;6.97;1.80;;;12.70;99.90;;;;;;5028940;28;20200;-67
2023/10/08 04:15:40;;;;;;;3.42;1.77;;;12.70;99.90;;;;;;5042445;28;20244;-67
2023/10/08 04:18:07;;;;;;;7.10;1.70;;;12.70;99.90;;;;;;5029581;28;20201;-67
2023/10/08 04:20:38;;;;;;;5.72;1.60;;;12.70;99.90;;;;;;5035997;28;20212;-67
2023/10/08 04:23:13;;;;;;;3.65;1.40;;;12.70;99.90;;;;;;5039107;28;20212;-67
2023/10/08 04:25:42;;;;;;;7.55;1.40;;;12.80;99.90;;;;;;5012160;28;20220;-67
2023/10/08 04:28:14;;;;;;;8.00;1.63;;;12.50;99.90;;;;;;5030797;28;20211;-67
2023/10/08 04:30:43;;;;;;;7.47;1.42;;;12.60;99.90;;;;;;5042269;28;20229;-67
2023/10/08 04:33:12;;;;;;;3.83;1.27;;;12.70;99.90;;;;;;5031521;28;20286;-67
2023/10/08 04:35:48;;;;;;;6.95;1.55;;;12.40;99.90;;;;;;5037854;28;20232;-67
2023/10/08 04:38:17;;;;;;;3.55;1.50;;;12.50;99.90;;;;;;5038861;28;20192;-67
2023/10/08 04:40:48;;;;;;;5.68;2.42;;;12.60;99.90;;;;;;5038304;28;20197;-67
2023/10/08 04:43:21;;;;;;;3.92;1.35;;;12.50;99.90;;;;;;5006198;28;20217;-67
2023/10/08 04:45:49;;;;;;;9.27;1.83;;;12.40;99.90;;;;;;5038008;28;20769;-67
2023/10/08 04:48:20;;;;;;;5.72;1.88;;;12.00;99.90;;;;;;5029481;28;21428;-67
2023/10/08 04:50:57;;;;;;;7.78;1.45;;;12.60;99.90;;;;;;5034702;28;20710;-67
2023/10/08 04:53:31;;;;;;;3.42;1.50;;;12.40;99.90;;;;;;5038515;28;20204;-67
2023/10/08 04:56:02;;;;;;;2.55;1.63;;;12.30;99.90;;;;;;5038460;28;21468;-66
2023/10/08 04:58:33;;;;;;;4.60;1.13;;;12.40;99.90;;;;;;4997748;28;23068;-67
2023/10/08 05:01:17;;;;;;;3.17;1.25;;;12.50;99.90;;;;;;5034468;28;20284;-67
2023/10/08 05:03:55;;;;;;;7.95;1.38;;;12.50;99.90;;;;;;5026593;28;22112;-67
2023/10/08 05:06:49;;;;;;;5.05;1.40;;;12.60;99.90;;;;;;5029719;28;20267;-67
2023/10/08 05:09:22;;;;;;;3.95;1.13;;;12.40;99.90;;;;;;5034406;28;20197;-66
2023/10/08 05:12:08;;;;;;;8.77;1.52;;;12.40;99.90;;;;;;5033677;28;20323;-67
2023/10/08 05:14:38;;;;;;;1.90;0.95;;;12.50;99.90;;;;;;5006459;28;20220;-67
2023/10/08 05:17:09;;;;;;;6.38;1.17;;;12.40;99.90;;;;;;5033293;28;20687;-67
2023/10/08 05:19:56;;;;;;;4.50;1.30;;;12.50;99.90;;;;;;5015127;28;20255;-67
2023/10/08 05:22:44;;;;;;;4.20;1.40;;;12.50;99.90;;;;;;5039725;28;20196;-67
2023/10/08 05:25:24;;;;;;;4.38;1.33;;;12.40;99.90;;;;;;5039258;28;20204;-67
2023/10/08 05:28:09;;;;;;;5.97;1.30;;;12.70;99.90;;;;;;5003448;28;20232;-67
2023/10/08 05:30:52;;;;;;;5.85;2.05;;;12.30;99.90;;;;;;5038577;28;20812;-67
2023/10/08 05:33:28;;;;;;;4.35;1.33;;;12.40;99.90;;;;;;5024231;28;20215;-67
2023/10/08 05:36:09;;;;;;;2.58;1.13;;;12.50;99.90;;;;;;5015532;28;20622;-66
2023/10/08 05:38:51;;;;;;;5.32;1.10;;;12.30;99.90;;;;;;5029634;28;20216;-67
2023/10/08 05:41:27;;;;;;;4.47;1.25;;;12.30;99.90;;;;;;5034787;28;20286;-67
2023/10/08 05:47:06;;;;;;;6.47;1.15;;;12.20;99.90;;;;;;5028167;28;20204;-67
2023/10/08 05:49:42;;;;;;;4.95;1.75;;;12.30;99.90;;;;;;5022914;28;20232;-67
2023/10/08 05:52:24;;;;;;;2.83;0.90;;;12.20;99.90;;;;;;5038547;28;20574;-66
2023/10/08 05:55:15;;;;;;;3.50;0.88;;;12.20;99.90;;;;;;5027533;28;20198;-66
2023/10/08 05:57:51;;;;;;;1.65;0.90;;;;;;;;;;5026092;28;20221;-67
2023/10/08 06:03:31;;;;;;;7.10;0.88;;;12.20;99.90;;;;;;5041024;28;20197;-66
2023/10/08 06:11:41;;;;;;;9.10;1.45;;;13.50;99.90;;;;;;5025017;28;20259;-67
2023/10/08 06:14:13;;;;;;;6.03;1.30;;;11.80;99.90;;;;;;5005079;28;21086;-66
2023/10/08 06:16:46;;;;;;;9.43;1.77;;;12.30;99.90;;;;;;5030999;28;20236;-67
2023/10/08 06:19:13;;;;;;;4.28;1.52;;;12.30;99.90;;;;;;5034576;28;20204;-66
2023/10/08 06:21:41;;;;;;;6.53;1.25;;;12.50;99.90;;;;;;5029148;28;20225;-66
2023/10/08 06:24:09;;;;;;;3.95;1.00;;;12.30;99.90;;;;;;5025965;28;20221;-66
2023/10/08 06:26:44;;;;;;;3.25;1.17;;;11.70;99.90;;;;;;5033853;28;20226;-66
2023/10/08 06:29:26;;;;;;;3.20;1.17;;;13.60;99.90;;;;;;5006351;28;20209;-66
2023/10/08 06:31:55;;;;;;;3.83;0.90;;;12.30;99.90;;;;;;5027730;28;20229;-66
2023/10/08 06:34:22;;;;;;;6.28;1.17;;;12.20;99.90;;;;;;5029896;28;20203;-66
2023/10/08 06:36:53;;;;;;;1.73;0.80;;;12.30;99.90;;;;;;5007730;28;20287;-66
2023/10/08 06:39:25;;;;;;;6.90;1.27;;;12.30;99.90;;;;;;5029483;28;20201;-66
2023/10/08 06:41:54;;;;;;;3.35;1.48;;;12.60;99.90;;;;;;5035255;28;20612;-67
2023/10/08 06:44:22;;;;;;;1.98;1.00;;;12.30;99.90;;;;;;5001248;28;20224;-66
2023/10/08 06:46:52;;;;;;;2.75;1.00;;;12.30;99.90;;;;;;5033259;28;20576;-66
2023/10/08 06:49:20;;;;;;;6.07;1.60;;;12.30;99.90;;;;;;5030637;28;20327;-66
2023/10/08 06:51:48;;;;;;;3.08;1.23;;;12.40;99.90;;;;;;5027695;28;20225;-66
2023/10/08 06:54:17;;;;;;;3.42;1.05;;;12.20;99.90;;;;;;5023479;28;20330;-66
2023/10/08 06:56:46;;;;;;;8.95;1.13;;;12.30;99.90;;;;;;5021531;28;20208;-66
2023/10/08 06:59:14;;;;;;;6.75;1.20;;;13.40;99.90;;;;;;5001049;28;20338;-66
2023/10/08 07:01:45;;;;;;;2.30;1.02;;;12.30;99.90;;;;;;5008366;28;20500;-66
2023/10/08 07:04:13;;;;;;;1.73;1.05;;;12.40;99.90;;;;;;5017053;28;20278;-66
2023/10/08 07:06:40;;;;;;;6.93;1.52;;;12.40;99.90;;;;;;5024886;28;20201;-66
2023/10/08 07:09:22;;;;;;;6.47;1.83;;;12.50;99.90;;;;;;5018943;28;20641;-66
2023/10/08 07:11:49;;;;;;;4.03;1.15;;;12.40;99.90;;;;;;5025236;28;20290;-67
2023/10/08 07:14:18;;;;;;;4.28;1.00;;;12.50;99.90;;;;;;5017499;28;20204;-66
2023/10/08 07:16:47;;;;;;;5.00;0.98;;;12.50;99.90;;;;;;5023299;28;20229;-66
2023/10/08 07:19:17;;;;;;;2.25;1.35;;;12.60;99.90;;;;;;5037595;28;20203;-67
2023/10/08 07:21:45;;;;;;;6.25;1.60;;;12.50;99.90;;;;;;5028509;28;20259;-66
2023/10/08 07:24:15;;;;;;;5.85;1.40;;;12.60;99.90;;;;;;5023512;28;20209;-66
2023/10/08 07:26:46;;;;;;;5.18;1.42;;;12.70;99.90;;;;;;5031293;28;20252;-66
2023/10/08 07:29:17;;;;;;;2.70;1.20;;;12.60;99.90;;;;;;5013755;28;20289;-67
2023/10/08 07:31:48;;;;;;;2.95;1.13;;;12.70;99.90;;;;;;5008902;28;20702;-67
2023/10/08 07:34:25;;;;;;;3.78;1.10;;;12.80;99.90;;;;;;5041576;28;20291;-66
2023/10/08 07:36:55;;;;;;;4.22;1.13;;;12.80;99.90;;;;;;5018272;28;20323;-67
2023/10/08 07:39:33;;;;;;;6.15;1.35;;;12.90;99.90;;;;;;5020117;28;20202;-67
2023/10/08 07:42:01;;;;;;;3.00;1.70;;;12.90;99.90;;;;;;5034559;28;20198;-67
2023/10/08 07:44:29;;;;;;;6.53;1.65;;;12.90;99.90;;;;;;5029733;28;20700;-67
2023/10/08 07:46:59;;;;;;;3.25;1.98;;;13.00;99.90;;;;;;4993851;28;20212;-67
2023/10/08 07:49:29;;;;;;;8.23;1.48;;;13.00;99.90;;;;;;5038529;28;20295;-66
2023/10/08 07:51:58;;;;;;;7.47;1.25;;;13.00;99.90;;;;;;5021187;28;20974;-67
2023/10/08 07:54:27;;;;;;;5.93;1.35;;;13.00;99.90;;;;;;5014756;28;21036;-66
2023/10/08 07:56:59;;;;;;;3.58;0.93;;;12.60;99.90;;;;;;5036797;28;20291;-67
2023/10/08 07:59:26;;;;;;;6.22;1.48;;;13.10;99.90;;;;;;5029469;28;20227;-66
2023/10/08 08:01:53;;;;;;;5.45;1.20;;;10.40;99.90;;;;;;4957792;28;20235;-66
2023/10/08 08:04:22;;;;;;;6.32;1.52;;;13.20;99.90;;;;;;5021311;28;20193;-66
2023/10/08 08:06:50;;;;;;;4.85;1.30;;;13.20;99.90;;;;;;4999308;28;20503;-66
2023/10/08 08:09:19;;;;;;;2.17;0.85;;;13.30;99.90;;;;;;5006012;28;20205;-67
2023/10/08 08:11:47;;;;;;;4.93;1.23;;;13.40;99.90;;;;;;5024344;28;20232;-66
2023/10/08 08:14:16;;;;;;;5.25;1.33;;;13.30;99.90;;;;;;5023859;28;20254;-66
2023/10/08 08:16:47;;;;;;;6.28;1.25;;;13.40;99.90;;;;;;4994695;28;20328;-66
2023/10/08 08:19:15;;;;;;;4.28;1.13;;;13.10;99.90;;;;;;5015372;28;20221;-66
2023/10/08 08:21:45;;;;;;;8.93;1.50;;;13.40;99.90;;;;;;5004937;28;20624;-66
2023/10/08 08:24:13;;;;;;;9.32;1.73;;;13.40;99.90;;;;;;4996641;28;20205;-66
2023/10/08 08:27:01;;;;;;;5.50;1.52;;;13.40;99.90;;;;;;5010692;28;20235;-66
2023/10/08 08:29:28;;;;;;;2.88;1.13;;;13.40;99.90;;;;;;5032237;28;20205;-66
2023/10/08 08:31:56;;;;;;;5.60;1.23;;;13.40;99.90;;;;;;4990639;28;20243;-66
2023/10/08 08:34:23;;;;;;;6.53;1.52;;;13.40;99.90;;;;;;5015178;28;20197;-66
2023/10/08 08:36:52;;;;;;;5.53;1.42;;;13.50;99.90;;;;;;5038184;28;20282;-66
2023/10/08 08:39:32;;;;;;;5.00;1.75;;;13.50;99.90;;;;;;4991927;28;20222;-65
2023/10/08 08:42:01;;;;;;;2.85;1.33;;;13.50;99.90;;;;;;5012185;28;20866;-65
2023/10/08 08:44:30;;;;;;;3.50;1.20;;;13.90;99.90;;;;;;5014358;28;21139;-66
2023/10/08 08:46:59;;;;;;;3.28;1.33;;;11.30;99.90;;;;;;4993443;28;20956;-66
2023/10/08 08:49:28;;;;;;;3.63;1.13;;;13.60;99.90;;;;;;5014560;28;20435;-65
2023/10/08 08:52:00;;;;;;;7.43;1.23;;;13.60;99.90;;;;;;5028190;28;20817;-65
2023/10/08 08:54:30;;;;;;;4.30;1.20;;;13.60;99.90;;;;;;5005136;28;20209;-65
2023/10/08 08:56:57;;;;;;;5.97;1.50;;;13.80;99.90;;;;;;5023108;28;20765;-66
2023/10/08 08:59:24;;;;;;;3.10;1.10;;;13.60;99.90;;;;;;5023939;28;20760;-65
2023/10/08 09:01:53;;;;;;;8.77;1.50;;;13.60;99.90;;;;;;5005930;28;20633;-65
2023/10/08 09:04:29;;;;;;;6.65;1.33;;;13.40;99.90;;;;;;5016997;28;21143;-65
2023/10/08 09:06:58;;;;;;;4.45;1.45;;;13.60;99.90;;;;;;5035123;28;20220;-65
2023/10/08 09:09:32;;;;;;;7.72;1.23;;;13.70;99.90;;;;;;4996229;28;20225;-66
2023/10/08 09:12:00;;;;;;;2.10;0.80;;;13.70;99.90;;;;;;5016326;28;20232;-65
2023/10/08 09:14:29;;;;;;;5.15;1.15;;;13.70;99.90;;;;;;5019212;28;20724;-65
2023/10/08 09:16:57;;;;;;;1.85;1.00;;;13.70;99.90;;;;;;5018996;28;20259;-65
2023/10/08 09:19:26;;;;;;;5.18;1.50;;;13.70;99.90;;;;;;4988695;28;20224;-65
2023/10/08 09:22:05;;;;;;;5.60;1.13;;;13.80;99.90;;;;;;5032374;28;20228;-65
2023/10/08 09:24:36;;;;;;;5.18;1.17;;;13.80;99.90;;;;;;5027387;28;20224;-65
2023/10/08 09:27:03;;;;;;;4.00;1.20;;;13.80;99.90;;;;;;5012215;28;20206;-65
2023/10/08 09:29:30;;;;;;;1.23;0.85;;;13.80;99.90;;;;;;5040018;28;20220;-65
2023/10/08 09:31:58;;;;;;;6.70;1.38;;;13.80;99.90;;;;;;5041544;28;20229;-65
2023/10/08 09:34:29;;;;;;;6.47;1.10;;;13.90;99.90;;;;;;5005696;28;20242;-65
2023/10/08 09:36:59;;;;;;;2.90;1.45;;;13.90;99.90;;;;;;5035219;28;20197;-65
2023/10/08 09:39:30;;;;;;;4.50;1.10;;;13.90;99.90;;;;;;5022186;28;20285;-65
2023/10/08 09:41:58;;;;;;;2.92;1.10;;;13.90;99.90;;;;;;5020953;28;20881;-65
2023/10/08 09:44:26;;;;;;;3.83;1.63;;;13.90;99.90;;;;;;5021146;28;20682;-66
2023/10/08 09:47:04;;;;;;;3.10;1.13;;;14.00;99.90;;;;;;5028383;28;20204;-65
2023/10/08 09:49:35;;;;;;;5.47;1.33;;;14.00;99.90;;;;;;5000553;28;20228;-65
2023/10/08 09:52:06;;;;;;;3.22;1.15;;;14.30;99.90;;;;;;5030591;28;20229;-65
2023/10/08 09:54:40;;;;;;;4.57;1.27;;;14.10;99.90;;;;;;5021957;28;21072;-65
2023/10/08 09:57:07;;;;;;;5.22;1.15;;;14.10;99.90;;;;;;5022403;28;20204;-65
2023/10/08 09:59:35;;;;;;;4.30;1.20;;;14.10;99.90;;;;;;5026154;28;20281;-65
2023/10/08 10:02:03;;;;;;;2.67;0.80;;;14.60;99.90;;;;;;5026884;28;20585;-65
2023/10/08 10:04:32;;;;;;;3.38;1.30;;;14.10;99.90;;;;;;4985516;28;20212;-65
2023/10/08 10:07:08;;;;;;;3.78;1.20;;;14.20;99.90;;;;;;5034578;28;20197;-66
2023/10/08 10:09:37;;;;;;;2.00;1.02;;;14.20;99.90;;;;;;5024669;28;20253;-65
2023/10/08 10:12:09;;;;;;;9.88;1.40;;;14.20;99.90;;;;;;5035835;28;20233;-65
2023/10/08 10:14:43;;;;;;;6.00;1.17;;;14.20;99.90;;;;;;5014214;28;20228;-65
2023/10/08 10:17:14;;;;;;;2.92;1.02;;;14.20;99.90;;;;;;5035370;28;20204;-65
2023/10/08 10:19:45;;;;;;;5.15;1.33;;;14.20;99.90;;;;;;4976608;28;20244;-65
2023/10/08 10:22:15;;;;;;;6.70;1.67;;;14.20;99.90;;;;;;5032197;28;20222;-65
2023/10/08 10:24:45;;;;;;;3.33;1.20;;;13.80;99.90;;;;;;5013834;28;20729;-66
2023/10/08 10:27:14;;;;;;;3.50;1.10;;;14.10;99.90;;;;;;4979750;28;20222;-65
2023/10/08 10:29:43;;;;;;;3.25;1.23;;;14.10;99.90;;;;;;4995911;28;22383;-65
2023/10/08 10:32:13;;;;;;;3.55;1.15;;;14.50;99.90;;;;;;5013068;28;20228;-65
2023/10/08 10:34:40;;;;;;;7.68;0.90;;;14.10;99.90;;;;;;4961368;28;20580;-65
2023/10/08 10:37:10;;;;;;;3.25;0.95;;;14.10;99.90;;;;;;5021395;28;20203;-65
2023/10/08 10:39:41;;;;;;;7.80;1.35;;;14.10;99.90;;;;;;4999813;28;20484;-65
2023/10/08 10:42:20;;;;;;;4.85;1.10;;;14.10;99.90;;;;;;5017538;28;20802;-65
2023/10/08 10:44:49;;;;;;;4.80;1.23;;;14.30;99.90;;;;;;4989222;28;20208;-65
2023/10/08 10:47:42;;;;;;;8.07;1.55;;;14.20;99.90;;;;;;5016726;28;20207;-65
2023/10/08 10:50:31;;;;;;;5.20;1.60;;;14.30;99.90;;;;;;4979764;28;20216;-65
2023/10/08 10:52:57;;;;;;;3.67;1.52;;;14.40;99.90;;;;;;5024680;28;20645;-65
2023/10/08 10:55:31;;;;;;;4.13;1.13;;;14.30;99.90;;;;;;5013602;28;20635;-65
2023/10/08 10:58:11;;;;;;;9.23;1.33;;;14.50;99.90;;;;;;5023394;28;20204;-65
2023/10/08 11:00:49;;;;;;;5.22;1.52;;;14.30;99.90;;;;;;5004449;28;20237;-65
2023/10/08 11:03:17;;;;;;;1.38;0.70;;;14.40;99.90;;;;;;5016195;28;20224;-65
2023/10/08 11:05:51;;;;;;;8.25;1.40;;;14.50;99.90;;;;;;4980994;28;20221;-65
2023/10/08 11:08:19;;;;;;;3.20;0.90;;;14.60;99.90;;;;;;5001321;28;20216;-65
2023/10/08 11:10:50;;;;;;;5.07;1.10;;;14.50;99.90;;;;;;5017072;28;20228;-65
2023/10/08 11:13:20;;;;;;;6.07;1.27;;;14.50;99.90;;;;;;5011731;28;20610;-65
2023/10/08 11:15:51;;;;;;;5.55;1.30;;;14.50;99.90;;;;;;5012788;28;20661;-65
2023/10/08 11:18:19;;;;;;;4.30;1.77;;;14.50;99.90;;;;;;5012546;28;20339;-65
2023/10/08 11:20:53;;;;;;;9.63;1.30;;;14.50;99.90;;;;;;4996971;28;20217;-65
2023/10/08 11:23:35;;;;;;;6.72;1.52;;;14.50;99.90;;;;;;5019146;28;20707;-65
2023/10/08 11:26:04;;;;;;;5.47;2.47;;;14.40;99.90;;;;;;5022569;28;20862;-65
2023/10/08 11:28:34;;;;;;;9.05;4.43;;;14.10;99.90;;;;;;5007803;28;20197;-65
2023/10/08 11:31:07;;;;;;;6.25;3.05;;;14.50;99.90;;;;;;5021611;28;20434;-65
2023/10/08 11:33:36;;;;;;;6.38;2.55;;;14.50;99.90;;;;;;5004231;28;20232;-65
2023/10/08 11:36:06;;;;;;;5.18;1.55;;;14.50;99.90;;;;;;4991214;28;20233;-65
2023/10/08 11:38:39;;;;;;;5.25;0.98;;;14.50;99.90;;;;;;5030555;28;20786;-65
2023/10/08 11:41:21;;;;;;;3.17;0.90;;;12.90;99.90;;;;;;5025460;28;20197;-65
2023/10/08 11:43:56;;;;;;;2.95;1.10;;;14.50;99.90;;;;;;5014980;28;20204;-65
2023/10/08 11:46:27;;;;;;;7.75;1.48;;;14.60;99.90;;;;;;5005216;28;20230;-65
2023/10/08 11:48:57;;;;;;;3.88;2.15;;;14.60;99.90;;;;;;5022246;28;20203;-65
2023/10/08 11:51:24;;;;;;;3.22;1.42;;;14.60;99.90;;;;;;4996617;28;20424;-65
2023/10/08 11:53:51;;;;;;;4.53;1.38;;;14.60;99.90;;;;;;5024413;28;20225;-65
2023/10/08 11:56:23;;;;;;;4.30;1.60;;;14.50;99.90;;;;;;5025935;28;20831;-65
2023/10/08 11:58:51;;;;;;;5.53;1.70;;;14.50;99.90;;;;;;5014023;28;20550;-65
2023/10/08 12:01:20;;;;;;;7.57;1.58;;;14.30;99.90;;;;;;5017249;28;20627;-65
2023/10/08 12:03:49;;;;;;;4.53;1.30;;;14.50;99.90;;;;;;4996696;28;20237;-65
2023/10/08 12:06:18;;;;;;;3.28;1.25;;;14.60;99.90;;;;;;4992470;28;20225;-65
2023/10/08 12:08:46;;;;;;;4.85;1.23;;;14.40;99.90;;;;;;5028483;28;20255;-65
2023/10/08 12:11:13;;;;;;;4.35;1.25;;;15.50;99.90;;;;;;5027047;28;20231;-65
2023/10/08 12:13:44;;;;;;;13.27;1.63;;;14.40;99.90;;;;;;5018330;28;20347;-65
2023/10/08 12:16:18;;;;;;;2.95;1.33;;;14.50;99.90;;;;;;5021513;28;20237;-65
2023/10/08 12:18:52;;;;;;;6.38;1.55;;;14.50;99.90;;;;;;5016181;28;20215;-65
2023/10/08 12:21:19;;;;;;;3.13;1.25;;;14.50;99.90;;;;;;5027799;28;20682;-65
2023/10/08 12:23:46;;;;;;;2.58;0.88;;;14.60;99.90;;;;;;5000706;28;20411;-65
2023/10/08 12:26:15;;;;;;;2.15;1.05;;;14.40;99.90;;;;;;5026856;28;20203;-65
2023/10/08 12:28:44;;;;;;;2.00;1.10;;;14.50;99.90;;;;;;4991802;28;20266;-65
2023/10/08 12:31:11;;;;;;;2.15;1.10;;;14.50;99.90;;;;;;5022609;28;22092;-65
2023/10/08 12:33:40;;;;;;;2.60;1.20;;;14.50;99.90;;;;;;5022174;28;20745;-64
2023/10/08 12:36:11;;;;;;;2.45;1.10;;;14.50;99.90;;;;;;4998609;28;20229;-65
2023/10/08 12:38:39;;;;;;;7.57;1.40;;;14.60;99.90;;;;;;4998581;28;20621;-65
2023/10/08 12:41:11;;;;;;;2.28;0.95;;;14.80;99.90;;;;;;5015949;28;20232;-65
2023/10/08 12:43:42;;;;;;;6.10;1.17;;;15.10;99.90;;;;;;5013550;28;23118;-65
2023/10/08 12:46:16;;;;;;;1.90;0.80;;;14.70;99.90;;;;;;5033512;28;20216;-64
2023/10/08 12:48:43;;;;;;;3.53;1.00;;;14.70;99.90;;;;;;5014237;28;20221;-65
2023/10/08 12:51:12;;;;;;;2.45;1.00;;;14.70;99.90;;;;;;5009425;28;20221;-64
2023/10/08 12:53:39;;;;;;;2.38;0.98;;;14.70;99.90;;;;;;4999472;28;20275;-64
2023/10/08 12:56:06;;;;;;;4.00;1.65;;;14.70;99.90;;;;;;5017794;28;20221;-64
2023/10/08 12:58:41;;;;;;;6.47;1.52;;;14.70;99.90;;;;;;5015429;28;20216;-65
2023/10/08 13:01:09;;;;;;;5.32;1.38;;;14.70;99.90;;;;;;5016604;28;20590;-64
2023/10/08 13:03:41;;;;;;;5.18;0.95;;;14.80;99.90;;;;;;5030204;28;20432;-64
2023/10/08 13:06:11;;;;;;;2.83;0.98;;;14.60;99.90;;;;;;5002102;28;21334;-64
2023/10/08 13:08:39;;;;;;;4.90;1.00;;;14.80;99.90;;;;;;5027057;28;20803;-64
2023/10/08 13:11:06;;;;;;;3.63;0.85;;;14.80;99.90;;;;;;4992444;28;20212;-64
2023/10/08 13:13:33;;;;;;;7.05;1.10;;;14.80;99.90;;;;;;5028780;28;21092;-64
2023/10/08 13:16:03;;;;;;;2.63;0.90;;;14.80;99.90;;;;;;5012530;28;20240;-64
2023/10/08 13:18:32;;;;;;;2.72;1.00;;;14.90;99.90;;;;;;5031399;28;20193;-64
2023/10/08 13:21:00;;;;;;;8.15;1.38;;;14.90;99.90;;;;;;5002014;28;20228;-64